Time;durP1;ratioP1;P1;durP2;ratioP2;P2;SDS_P1;SDS_P2;PMS_P1;PMS_P2;Temp;Humidity;BMP_temperature;BMP_pressure;BME280_temperature;BME280_humidity;BME280_pressure;Samples;Min_cycle;Max_cycle;Signal;HPM_P1;HPM_P2
2022/01/02 00:01:04;;;;;;;23.33;16.67;;;7.10;99.90;;;;;;4996377;28;20470;-87
2022/01/02 00:03:38;;;;;;;16.73;15.10;;;7.00;99.90;;;;;;4996069;28;20477;-87
2022/01/02 00:06:05;;;;;;;20.53;17.70;;;7.00;99.90;;;;;;4996763;28;20447;-87
2022/01/02 00:08:39;;;;;;;18.37;15.83;;;7.00;99.90;;;;;;5001150;28;20451;-87
2022/01/02 00:11:10;;;;;;;18.30;15.30;;;6.90;99.90;;;;;;5005935;28;20469;-87
2022/01/02 00:13:46;;;;;;;16.83;15.03;;;6.90;99.90;;;;;;5001185;28;20471;-87
2022/01/02 00:16:16;;;;;;;17.90;15.50;;;7.00;99.90;;;;;;4995945;28;20533;-87
2022/01/02 00:18:50;;;;;;;17.63;15.73;;;7.00;99.90;;;;;;4997657;28;20454;-89
2022/01/02 00:21:18;;;;;;;19.63;15.00;;;7.00;99.90;;;;;;5004647;28;20494;-88
2022/01/02 00:23:56;;;;;;;17.23;14.37;;;7.00;99.90;;;;;;5000882;28;20446;-88
2022/01/02 00:26:34;;;;;;;18.23;16.33;;;7.00;99.90;;;;;;5004232;28;20447;-88
2022/01/02 00:29:02;;;;;;;18.00;14.73;;;7.10;99.90;;;;;;5007741;28;20443;-87
2022/01/02 00:31:30;;;;;;;19.93;17.10;;;7.00;99.90;;;;;;5006889;28;20451;-86
2022/01/02 00:33:58;;;;;;;19.30;16.93;;;7.00;99.90;;;;;;5007773;28;20474;-88
2022/01/02 00:36:24;;;;;;;23.10;18.63;;;7.00;99.90;;;;;;5004099;28;20500;-88
2022/01/02 00:38:51;;;;;;;20.37;17.13;;;6.90;99.90;;;;;;5007715;28;20505;-88
2022/01/02 00:41:27;;;;;;;18.70;15.53;;;6.90;99.90;;;;;;5013413;28;20447;-88
2022/01/02 00:43:59;;;;;;;21.10;17.43;;;6.90;99.90;;;;;;5015818;28;20562;-88
2022/01/02 00:46:28;;;;;;;18.30;16.37;;;6.90;99.90;;;;;;5010892;28;20447;-88
2022/01/02 00:49:00;;;;;;;27.17;18.10;;;6.90;99.90;;;;;;5008126;28;20443;-88
2022/01/02 00:51:42;;;;;;;22.10;17.10;;;6.90;99.90;;;;;;5008643;28;20447;-88
2022/01/02 00:54:10;;;;;;;18.87;16.23;;;6.80;99.90;;;;;;5007949;28;20479;-87
2022/01/02 00:56:43;;;;;;;21.07;17.40;;;6.80;99.90;;;;;;5009751;28;20479;-87
2022/01/02 00:59:22;;;;;;;19.73;16.50;;;6.80;99.90;;;;;;4999626;28;20454;-87
2022/01/02 01:01:57;;;;;;;18.47;16.23;;;6.70;99.90;;;;;;4997985;28;20543;-87
2022/01/02 01:04:28;;;;;;;22.73;16.97;;;6.70;99.90;;;;;;4999190;28;21038;-88
2022/01/02 01:06:58;;;;;;;20.07;16.70;;;6.70;99.90;;;;;;4997577;28;20478;-88
2022/01/02 01:09:28;;;;;;;22.87;17.87;;;6.70;99.90;;;;;;4997349;28;20451;-88
2022/01/02 01:11:58;;;;;;;18.10;16.10;;;6.60;99.90;;;;;;4996626;28;20459;-87
2022/01/02 01:14:25;;;;;;;22.40;16.33;;;6.60;99.90;;;;;;5001949;28;20459;-87
2022/01/02 01:16:53;;;;;;;19.90;16.57;;;6.60;99.90;;;;;;4999808;28;20486;-87
2022/01/02 01:19:20;;;;;;;20.33;17.10;;;6.60;99.90;;;;;;4996735;28;20490;-88
2022/01/02 01:21:47;;;;;;;18.47;16.50;;;6.50;99.90;;;;;;4997250;28;20467;-87
2022/01/02 01:24:13;;;;;;;19.53;16.97;;;6.50;99.90;;;;;;4997203;28;20471;-88
2022/01/02 01:26:40;;;;;;;18.27;15.43;;;6.50;99.90;;;;;;4997559;28;20477;-88
2022/01/02 01:29:09;;;;;;;19.33;16.50;;;6.50;99.90;;;;;;4996784;28;20443;-86
2022/01/02 01:31:35;;;;;;;20.10;16.77;;;6.50;99.90;;;;;;4997429;28;20439;-86
2022/01/02 01:34:02;;;;;;;18.13;15.23;;;6.50;99.90;;;;;;4996800;28;20466;-87
2022/01/02 01:36:29;;;;;;;21.10;16.70;;;6.50;99.90;;;;;;4995740;28;20995;-87
2022/01/02 01:38:55;;;;;;;21.10;15.77;;;6.40;99.90;;;;;;4998308;28;20447;-86
2022/01/02 01:41:27;;;;;;;20.77;14.17;;;6.40;99.90;;;;;;5002559;28;20462;-86
2022/01/02 01:44:05;;;;;;;20.17;16.10;;;6.40;99.90;;;;;;5014391;28;20466;-87
2022/01/02 01:46:34;;;;;;;22.87;16.97;;;6.40;99.90;;;;;;5004582;28;20455;-87
2022/01/02 01:49:00;;;;;;;20.40;16.13;;;6.40;99.90;;;;;;5011996;28;20445;-87
2022/01/02 01:51:27;;;;;;;18.30;15.20;;;6.30;99.90;;;;;;5010324;28;20466;-87
2022/01/02 01:53:54;;;;;;;20.10;16.07;;;6.40;99.90;;;;;;4998118;28;20462;-86
2022/01/02 01:56:21;;;;;;;15.73;13.10;;;6.40;99.90;;;;;;5004074;28;20479;-86
2022/01/02 01:58:47;;;;;;;16.30;14.40;;;6.30;99.90;;;;;;4996248;28;20458;-87
2022/01/02 02:01:14;;;;;;;17.40;14.20;;;6.40;99.90;;;;;;4996313;28;20451;-86
2022/01/02 02:03:42;;;;;;;19.60;15.87;;;6.30;99.90;;;;;;4996204;28;20478;-87
2022/01/02 02:06:09;;;;;;;20.20;14.67;;;6.30;99.90;;;;;;5000381;28;20482;-86
2022/01/02 02:08:36;;;;;;;18.33;15.30;;;6.30;99.90;;;;;;4998658;28;20455;-87
2022/01/02 02:11:03;;;;;;;19.40;14.80;;;6.20;99.90;;;;;;5000460;28;20818;-86
2022/01/02 02:13:30;;;;;;;18.77;15.80;;;6.20;99.90;;;;;;4996359;28;20479;-86
2022/01/02 02:15:59;;;;;;;18.30;14.60;;;6.30;99.90;;;;;;4996070;28;20455;-88
2022/01/02 02:18:25;;;;;;;18.20;14.50;;;6.20;99.90;;;;;;4998270;28;20466;-86
2022/01/02 02:20:53;;;;;;;19.10;15.53;;;6.10;99.90;;;;;;4996812;28;20447;-87
2022/01/02 02:23:20;;;;;;;19.10;14.30;;;6.10;99.90;;;;;;4997136;28;20439;-86
2022/01/02 02:25:47;;;;;;;16.13;14.40;;;6.10;99.90;;;;;;4995910;28;20435;-86
2022/01/02 02:28:15;;;;;;;17.90;14.50;;;6.10;99.90;;;;;;4996544;28;20455;-87
2022/01/02 02:30:44;;;;;;;18.60;15.27;;;6.00;99.90;;;;;;4995930;28;20451;-86
2022/01/02 02:33:12;;;;;;;16.63;14.67;;;6.00;99.90;;;;;;4995411;28;20451;-86
2022/01/02 02:35:41;;;;;;;15.57;13.97;;;6.00;99.90;;;;;;4996714;28;20454;-86
2022/01/02 02:38:11;;;;;;;18.53;15.33;;;6.00;99.90;;;;;;4995533;28;20490;-86
2022/01/02 02:40:39;;;;;;;16.50;14.77;;;6.00;99.90;;;;;;4997845;28;20462;-87
2022/01/02 02:43:13;;;;;;;16.47;14.67;;;6.00;99.90;;;;;;5009407;28;20500;-86
2022/01/02 02:51:13;;;;;;;17.57;14.83;;;5.90;99.90;;;;;;5032102;28;20493;-92
2022/01/02 02:53:48;;;;;;;17.37;13.80;;;5.90;99.90;;;;;;5037542;28;20445;-93
2022/01/02 02:56:19;;;;;;;16.00;14.23;;;5.80;99.90;;;;;;5017678;28;20461;-93
2022/01/02 02:58:49;;;;;;;13.93;12.53;;;5.90;99.90;;;;;;5021308;28;20495;-93
2022/01/02 03:01:18;;;;;;;18.63;14.47;;;5.90;99.90;;;;;;5031334;28;20456;-92
2022/01/02 03:03:46;;;;;;;15.30;13.30;;;5.90;99.90;;;;;;5029781;28;20447;-92
2022/01/02 03:06:14;;;;;;;16.43;13.20;;;5.90;99.90;;;;;;5017885;28;20481;-92
2022/01/02 03:08:45;;;;;;;17.07;14.73;;;5.90;99.90;;;;;;5029475;28;20434;-92
2022/01/02 03:11:15;;;;;;;17.33;13.63;;;5.90;99.90;;;;;;5018711;28;20830;-93
2022/01/02 03:13:43;;;;;;;16.37;13.07;;;5.90;99.90;;;;;;5020141;28;20456;-92
2022/01/02 03:16:10;;;;;;;15.20;13.60;;;5.80;99.90;;;;;;5016771;28;20974;-92
2022/01/02 03:18:37;;;;;;;13.93;12.37;;;5.80;99.90;;;;;;5016261;28;20482;-92
2022/01/02 03:21:05;;;;;;;18.37;14.60;;;5.90;99.90;;;;;;5027730;28;20460;-92
2022/01/02 03:23:32;;;;;;;16.00;13.70;;;5.90;99.90;;;;;;5022087;28;20497;-93
2022/01/02 03:26:00;;;;;;;13.50;12.10;;;5.90;99.90;;;;;;5026787;28;20468;-92
2022/01/02 03:28:28;;;;;;;16.33;13.30;;;5.90;99.90;;;;;;5024675;28;20439;-92
2022/01/02 03:30:54;;;;;;;15.83;11.80;;;6.00;99.90;;;;;;5018811;28;20514;-92
2022/01/02 03:33:21;;;;;;;15.00;12.67;;;6.00;99.90;;;;;;5016809;28;20791;-92
2022/01/02 03:36:09;;;;;;;16.77;13.17;;;6.00;99.90;;;;;;5020624;28;20468;-92
2022/01/02 03:38:36;;;;;;;14.70;12.30;;;6.00;99.90;;;;;;5036062;28;20480;-93
2022/01/02 03:41:05;;;;;;;14.13;12.50;;;6.00;99.90;;;;;;5028253;28;20446;-92
2022/01/02 03:43:31;;;;;;;15.37;13.47;;;6.00;99.90;;;;;;5029983;28;20455;-92
2022/01/02 03:46:02;;;;;;;15.83;12.20;;;5.90;99.90;;;;;;5033407;28;20471;-91
2022/01/02 03:48:29;;;;;;;13.67;12.27;;;6.00;99.90;;;;;;5024135;28;20462;-92
2022/01/02 03:50:56;;;;;;;14.43;12.00;;;5.90;99.90;;;;;;5023490;28;20824;-92
2022/01/02 03:53:23;;;;;;;14.37;12.13;;;5.90;99.90;;;;;;5023328;28;20456;-92
2022/01/02 03:55:50;;;;;;;14.30;12.80;;;5.90;99.90;;;;;;5016763;28;20477;-93
2022/01/02 03:58:51;;;;;;;13.77;12.37;;;5.90;99.90;;;;;;5027883;28;20520;-92
2022/01/02 04:01:18;;;;;;;13.93;11.10;;;5.90;99.90;;;;;;5009918;28;20532;-92
2022/01/02 04:03:44;;;;;;;15.33;12.77;;;5.80;99.90;;;;;;5032677;28;20497;-91
2022/01/02 04:06:11;;;;;;;15.30;12.33;;;5.70;99.90;;;;;;5037116;28;20497;-92
2022/01/02 04:08:38;;;;;;;11.83;10.73;;;5.70;99.90;;;;;;5031185;28;20446;-92
2022/01/02 04:11:05;;;;;;;15.10;12.83;;;5.60;99.90;;;;;;5027668;28;20441;-93
2022/01/02 04:13:32;;;;;;;14.90;13.30;;;5.60;99.90;;;;;;5043772;28;20508;-92
2022/01/02 04:16:01;;;;;;;14.30;11.73;;;5.60;99.90;;;;;;5017969;28;20489;-93
2022/01/02 04:18:28;;;;;;;17.13;13.20;;;5.60;99.90;;;;;;5034216;28;20541;-92
2022/01/02 04:20:55;;;;;;;15.20;12.70;;;5.50;99.90;;;;;;5049301;28;20428;-92
2022/01/02 04:23:22;;;;;;;17.20;14.00;;;5.50;99.90;;;;;;5035251;28;20454;-94
2022/01/02 04:25:49;;;;;;;13.13;11.80;;;5.50;99.90;;;;;;5029813;28;20475;-93
2022/01/02 04:28:16;;;;;;;16.80;11.70;;;5.50;99.90;;;;;;5032894;28;20883;-92
2022/01/02 04:30:43;;;;;;;13.10;11.70;;;5.50;99.90;;;;;;5030439;28;20476;-93
2022/01/02 04:33:11;;;;;;;17.13;13.40;;;5.50;99.90;;;;;;5040109;28;20775;-89
2022/01/02 04:35:38;;;;;;;12.63;11.33;;;5.40;99.90;;;;;;5025271;28;20478;-92
2022/01/02 04:38:05;;;;;;;15.00;13.30;;;5.40;99.90;;;;;;5028884;28;20493;-92
2022/01/02 04:40:32;;;;;;;17.20;14.03;;;5.40;99.90;;;;;;5031021;28;20461;-92
2022/01/02 04:43:00;;;;;;;14.00;12.60;;;5.30;99.90;;;;;;5022535;28;20453;-92
2022/01/02 04:45:28;;;;;;;14.43;12.70;;;5.30;99.90;;;;;;5033337;28;21065;-93
2022/01/02 04:47:55;;;;;;;16.10;13.60;;;5.30;99.90;;;;;;5019986;28;20457;-92
2022/01/02 04:50:23;;;;;;;15.50;11.63;;;5.30;99.90;;;;;;5041668;28;20426;-93
2022/01/02 04:52:50;;;;;;;12.90;11.60;;;5.30;99.90;;;;;;5029162;28;20455;-92
2022/01/02 04:55:18;;;;;;;14.30;11.70;;;5.30;99.90;;;;;;5035580;28;20482;-93
2022/01/02 04:57:45;;;;;;;17.07;12.23;;;5.30;99.90;;;;;;5010197;28;20508;-92
2022/01/02 05:00:13;;;;;;;14.40;11.50;;;5.30;99.90;;;;;;5031283;28;20512;-92
2022/01/02 05:02:40;;;;;;;14.07;11.60;;;5.30;99.90;;;;;;5042421;28;20446;-92
2022/01/02 05:05:08;;;;;;;16.00;12.87;;;5.40;99.90;;;;;;5032993;28;20462;-91
2022/01/02 05:07:36;;;;;;;14.33;11.37;;;5.40;99.90;;;;;;5053300;28;20520;-92
2022/01/02 05:10:04;;;;;;;14.30;11.73;;;5.40;99.90;;;;;;5047452;28;20463;-93
2022/01/02 05:12:31;;;;;;;15.67;10.87;;;5.50;99.90;;;;;;5034833;28;20483;-92
2022/01/02 05:14:58;;;;;;;13.90;11.30;;;5.50;99.90;;;;;;5028862;28;20470;-92
2022/01/02 05:17:25;;;;;;;11.20;10.17;;;5.50;99.90;;;;;;5035817;28;20473;-92
2022/01/02 05:19:52;;;;;;;12.17;10.90;;;5.50;99.90;;;;;;5041021;28;20981;-92
2022/01/02 05:22:19;;;;;;;12.17;10.90;;;5.50;99.90;;;;;;5029104;28;20525;-92
2022/01/02 05:24:47;;;;;;;12.70;11.20;;;5.50;99.90;;;;;;5001795;28;20479;-93
2022/01/02 05:27:15;;;;;;;12.83;11.50;;;5.50;99.90;;;;;;5014444;28;20449;-92
2022/01/02 05:29:42;;;;;;;13.83;11.17;;;5.50;99.90;;;;;;5030791;28;20456;-93
2022/01/02 05:32:09;;;;;;;12.17;10.97;;;5.50;99.90;;;;;;5036845;28;20533;-92
2022/01/02 05:34:36;;;;;;;11.67;10.47;;;5.40;99.90;;;;;;5029322;28;20900;-92
2022/01/02 05:37:03;;;;;;;13.93;10.70;;;5.40;99.90;;;;;;5021494;28;21120;-93
2022/01/02 05:39:30;;;;;;;13.70;10.97;;;5.40;99.90;;;;;;5027165;28;20485;-92
2022/01/02 05:41:59;;;;;;;12.00;10.80;;;5.40;99.90;;;;;;5036772;28;20445;-92
2022/01/02 05:44:26;;;;;;;12.37;11.07;;;5.40;99.90;;;;;;5026207;28;20489;-92
2022/01/02 05:46:53;;;;;;;13.57;12.17;;;5.40;99.90;;;;;;5045185;28;20434;-93
2022/01/02 05:49:20;;;;;;;13.53;11.70;;;5.40;99.90;;;;;;5031334;28;20862;-92
2022/01/02 05:51:47;;;;;;;15.07;11.33;;;5.40;99.90;;;;;;5022967;28;20492;-92
2022/01/02 05:54:14;;;;;;;11.70;10.30;;;5.40;99.90;;;;;;5056978;28;20520;-91
2022/01/02 05:56:41;;;;;;;13.03;10.87;;;5.40;99.90;;;;;;5059805;28;20513;-92
2022/01/02 05:59:10;;;;;;;12.63;10.47;;;5.50;99.90;;;;;;5052961;28;20461;-92
2022/01/02 06:01:37;;;;;;;11.90;10.67;;;5.60;99.90;;;;;;5042813;28;20441;-92
2022/01/02 06:04:04;;;;;;;11.37;9.83;;;5.60;99.90;;;;;;5035825;28;21065;-93
2022/01/02 06:06:31;;;;;;;12.07;10.63;;;5.60;99.90;;;;;;5021629;28;20453;-92
2022/01/02 06:08:58;;;;;;;11.00;9.90;;;5.60;99.90;;;;;;5022256;28;20460;-92
2022/01/02 06:11:25;;;;;;;10.60;9.53;;;5.60;99.90;;;;;;5020508;28;20454;-92
2022/01/02 06:13:52;;;;;;;9.50;8.60;;;5.60;99.90;;;;;;5041404;28;20456;-92
2022/01/02 06:16:21;;;;;;;9.63;8.60;;;5.60;99.90;;;;;;5054138;28;20504;-92
2022/01/02 06:18:48;;;;;;;12.30;9.93;;;5.60;99.90;;;;;;5031613;28;20480;-92
2022/01/02 06:21:14;;;;;;;9.23;7.93;;;5.60;99.90;;;;;;5024666;28;20517;-92
2022/01/02 06:23:41;;;;;;;12.30;8.93;;;5.60;99.90;;;;;;5026729;28;20482;-92
2022/01/02 06:26:08;;;;;;;9.50;8.50;;;5.60;99.90;;;;;;5033355;28;20442;-92
2022/01/02 06:31:27;;;;;;;9.90;9.00;;;5.60;99.90;;;;;;5032209;28;20446;-92
2022/01/02 06:33:57;;;;;;;10.57;9.50;;;5.60;99.90;;;;;;5021602;28;20915;-91
2022/01/02 06:36:25;;;;;;;9.90;8.90;;;5.60;99.90;;;;;;5066856;23;20578;-93
2022/01/02 06:38:51;;;;;;;10.87;9.77;;;5.60;99.90;;;;;;5218004;23;20484;-91
2022/01/02 06:41:18;;;;;;;11.57;9.80;;;5.60;99.90;;;;;;5052540;28;20456;-90
2022/01/02 06:43:52;;;;;;;9.90;8.97;;;5.50;99.90;;;;;;5042750;28;20825;-90
2022/01/02 06:46:18;;;;;;;9.07;8.17;;;5.60;99.90;;;;;;5032633;28;20468;-91
2022/01/02 06:48:51;;;;;;;10.23;9.10;;;5.60;99.90;;;;;;5027757;28;20468;-91
2022/01/02 06:51:18;;;;;;;12.53;9.17;;;5.60;99.90;;;;;;5019370;28;20442;-91
2022/01/02 06:53:45;;;;;;;11.10;8.97;;;5.70;99.90;;;;;;5020952;28;20452;-91
2022/01/02 06:56:15;;;;;;;10.33;9.10;;;5.70;99.90;;;;;;5025120;28;20450;-92
2022/01/02 06:58:42;;;;;;;8.70;7.80;;;5.80;99.90;;;;;;5043089;28;20477;-93
2022/01/02 07:01:11;;;;;;;9.37;8.37;;;5.80;99.90;;;;;;5027007;28;20520;-92
2022/01/02 07:03:38;;;;;;;9.47;8.57;;;5.80;99.90;;;;;;5023476;28;20476;-81
2022/01/02 07:06:06;;;;;;;11.40;8.73;;;5.90;99.90;;;;;;5025746;28;20457;-80
2022/01/02 07:08:33;;;;;;;9.60;8.70;;;5.90;99.90;;;;;;5024922;28;20948;-80
2022/01/02 07:11:00;;;;;;;9.53;8.53;;;5.90;99.90;;;;;;5022758;28;20802;-80
2022/01/02 07:13:27;;;;;;;10.57;8.73;;;5.90;99.90;;;;;;5024938;28;20462;-89
2022/01/02 07:15:54;;;;;;;9.70;7.87;;;5.90;99.90;;;;;;5024589;28;20475;-88
2022/01/02 07:18:20;;;;;;;10.33;9.27;;;5.90;99.90;;;;;;5037348;28;20478;-89
2022/01/02 07:20:47;;;;;;;9.23;8.30;;;5.90;99.90;;;;;;5033446;28;20442;-89
2022/01/02 07:23:16;;;;;;;10.43;9.37;;;5.90;99.90;;;;;;5031245;28;20452;-89
2022/01/02 07:25:43;;;;;;;8.93;8.13;;;5.90;99.90;;;;;;5017954;28;20462;-89
2022/01/02 07:28:09;;;;;;;9.97;8.63;;;6.00;99.90;;;;;;5030070;28;20449;-88
2022/01/02 07:30:36;;;;;;;8.70;7.80;;;6.10;99.90;;;;;;5036856;28;20445;-88
2022/01/02 07:33:03;;;;;;;10.83;9.00;;;6.10;99.90;;;;;;5027556;28;20438;-87
2022/01/02 07:35:30;;;;;;;10.13;7.47;;;6.20;99.90;;;;;;5023576;28;20486;-88
2022/01/02 07:37:58;;;;;;;8.73;7.30;;;6.20;99.90;;;;;;5026472;28;20466;-87
2022/01/02 07:40:26;;;;;;;8.00;7.20;;;6.30;99.90;;;;;;5048191;28;20453;-89
2022/01/02 07:42:53;;;;;;;9.17;7.60;;;6.40;99.90;;;;;;5050621;28;20452;-87
2022/01/02 07:45:21;;;;;;;9.37;8.43;;;6.40;99.90;;;;;;5066321;23;20493;-88
2022/01/02 07:47:48;;;;;;;9.23;8.33;;;6.40;99.90;;;;;;5043229;28;20473;-87
2022/01/02 07:50:15;;;;;;;7.90;7.20;;;6.40;99.90;;;;;;5043511;28;20456;-87
2022/01/02 07:52:43;;;;;;;8.10;7.33;;;6.40;99.90;;;;;;5035661;28;20451;-87
2022/01/02 07:55:09;;;;;;;9.50;7.97;;;6.40;99.90;;;;;;5027006;28;20462;-88
2022/01/02 07:57:38;;;;;;;7.80;7.00;;;6.40;99.90;;;;;;5034094;28;20453;-87
2022/01/02 08:00:06;;;;;;;8.40;7.70;;;6.40;99.90;;;;;;5031450;28;20487;-88
2022/01/02 08:02:33;;;;;;;7.93;7.13;;;6.40;99.90;;;;;;5043629;28;20449;-88
2022/01/02 08:05:00;;;;;;;8.63;7.70;;;6.50;99.90;;;;;;5047788;28;20441;-88
2022/01/02 08:07:27;;;;;;;9.97;7.40;;;6.50;99.90;;;;;;5047874;28;20464;-87
2022/01/02 08:09:54;;;;;;;7.20;6.33;;;6.50;99.90;;;;;;5035429;28;20441;-87
2022/01/02 08:12:20;;;;;;;9.60;7.60;;;6.40;99.90;;;;;;5032142;28;20442;-88
2022/01/02 08:14:49;;;;;;;7.90;7.10;;;6.50;99.90;;;;;;5032256;28;20469;-88
2022/01/02 08:17:15;;;;;;;7.93;7.13;;;6.40;99.90;;;;;;5042614;28;20448;-86
2022/01/02 08:19:42;;;;;;;10.37;8.00;;;6.40;99.90;;;;;;5030533;28;20485;-87
2022/01/02 08:22:09;;;;;;;8.80;7.73;;;6.40;99.90;;;;;;5036443;28;20433;-87
2022/01/02 08:24:36;;;;;;;7.03;6.33;;;6.50;99.90;;;;;;5027346;28;20461;-87
2022/01/02 08:27:03;;;;;;;8.40;7.60;;;6.60;99.90;;;;;;5031986;28;20442;-88
2022/01/02 08:29:29;;;;;;;9.10;7.97;;;6.70;99.90;;;;;;5028960;28;20434;-88
2022/01/02 08:31:58;;;;;;;7.67;7.00;;;6.70;99.90;;;;;;5024145;28;20445;-86
2022/01/02 08:34:25;;;;;;;9.20;8.20;;;6.80;99.90;;;;;;5023437;28;20469;-88
2022/01/02 08:36:52;;;;;;;8.10;7.10;;;6.90;99.90;;;;;;5025323;28;20438;-88
2022/01/02 08:39:18;;;;;;;7.40;6.67;;;7.00;99.90;;;;;;5029543;28;20489;-88
2022/01/02 08:41:45;;;;;;;9.03;7.17;;;7.20;99.90;;;;;;5025757;28;20441;-88
2022/01/02 08:44:12;;;;;;;7.43;6.73;;;7.30;99.90;;;;;;5025038;28;20465;-88
2022/01/02 08:46:39;;;;;;;7.93;7.23;;;7.40;99.90;;;;;;5050904;23;20866;-86
2022/01/02 08:49:07;;;;;;;9.80;7.30;;;7.50;99.90;;;;;;5018371;28;20431;-86
2022/01/02 08:51:33;;;;;;;8.30;7.10;;;7.50;99.90;;;;;;5020131;28;20446;-86
2022/01/02 08:54:01;;;;;;;8.83;7.20;;;7.70;99.90;;;;;;5022512;28;21017;-86
2022/01/02 08:56:28;;;;;;;7.10;6.43;;;7.90;99.90;;;;;;5013819;28;21026;-86
2022/01/02 08:58:54;;;;;;;7.30;6.20;;;8.30;99.90;;;;;;5001226;28;20486;-86
2022/01/02 09:01:21;;;;;;;7.97;7.17;;;8.50;99.90;;;;;;5013265;28;20454;-86
2022/01/02 09:03:48;;;;;;;8.10;6.53;;;8.70;99.90;;;;;;5021010;28;20505;-85
2022/01/02 09:06:16;;;;;;;8.00;7.20;;;8.70;99.90;;;;;;5011876;28;20526;-86
2022/01/02 09:08:43;;;;;;;11.30;7.60;;;8.50;99.90;;;;;;5007625;28;20515;-85
2022/01/02 09:11:09;;;;;;;7.10;6.50;;;8.50;99.90;;;;;;5012428;28;20457;-86
2022/01/02 09:13:36;;;;;;;7.90;7.20;;;8.50;99.90;;;;;;5023982;28;20453;-85
2022/01/02 09:16:03;;;;;;;8.50;7.60;;;8.60;99.90;;;;;;5009348;28;20475;-85
2022/01/02 09:18:30;;;;;;;8.23;7.43;;;8.80;99.90;;;;;;5014977;28;20469;-86
2022/01/02 09:20:57;;;;;;;7.80;7.00;;;8.90;99.90;;;;;;5030783;28;20449;-86
2022/01/02 09:23:25;;;;;;;7.07;6.33;;;9.20;99.90;;;;;;5017794;28;20482;-86
2022/01/02 09:25:51;;;;;;;8.10;7.33;;;9.10;99.90;;;;;;5014652;28;20462;-86
2022/01/02 09:28:18;;;;;;;8.17;6.90;;;9.10;99.90;;;;;;5027132;28;20534;-86
2022/01/02 09:30:45;;;;;;;7.77;6.97;;;9.10;99.90;;;;;;5013276;28;20462;-87
2022/01/02 09:33:11;;;;;;;6.77;6.17;;;9.10;99.90;;;;;;5009201;28;20455;-87
2022/01/02 09:35:41;;;;;;;7.80;7.10;;;9.00;99.90;;;;;;5016217;28;20463;-87
2022/01/02 09:38:08;;;;;;;7.10;6.50;;;9.10;99.90;;;;;;5020529;28;20485;-85
2022/01/02 09:40:36;;;;;;;7.77;6.97;;;9.10;99.90;;;;;;5032250;28;20465;-84
2022/01/02 09:43:03;;;;;;;10.10;7.20;;;9.20;99.90;;;;;;5010197;28;20455;-84
2022/01/02 09:45:33;;;;;;;8.60;7.23;;;9.20;99.90;;;;;;5022896;28;20500;-87
2022/01/02 09:48:00;;;;;;;9.20;7.00;;;9.20;99.90;;;;;;5021178;28;20451;-86
2022/01/02 09:50:27;;;;;;;7.50;6.70;;;9.20;99.90;;;;;;5007783;28;20470;-84
2022/01/02 09:52:54;;;;;;;8.93;7.23;;;9.30;99.90;;;;;;5022922;28;20454;-88
2022/01/02 09:55:21;;;;;;;6.93;6.23;;;9.30;99.90;;;;;;5014497;28;20511;-87
2022/01/02 09:57:52;;;;;;;7.63;6.93;;;9.30;99.90;;;;;;5008841;28;20512;-85
2022/01/02 10:00:21;;;;;;;12.10;7.03;;;9.40;99.90;;;;;;5016932;28;20490;-85
2022/01/02 10:03:01;;;;;;;9.73;6.67;;;9.50;99.90;;;;;;4999755;28;20474;-85
2022/01/02 10:05:30;;;;;;;7.00;6.00;;;9.50;99.90;;;;;;5007319;28;20443;-85
2022/01/02 10:07:58;;;;;;;7.60;6.80;;;9.60;99.90;;;;;;5013033;28;20493;-85
2022/01/02 10:10:33;;;;;;;7.63;6.27;;;9.70;99.90;;;;;;5002781;28;20954;-85
2022/01/02 10:13:03;;;;;;;7.13;6.43;;;9.70;99.90;;;;;;5026938;28;20450;-86
2022/01/02 10:15:34;;;;;;;7.50;6.80;;;9.80;99.90;;;;;;5018102;28;20465;-84
2022/01/02 10:18:04;;;;;;;7.50;6.70;;;9.80;99.90;;;;;;5004653;28;20811;-86
2022/01/02 10:20:33;;;;;;;8.83;7.97;;;9.70;99.90;;;;;;5013569;28;20897;-85
2022/01/02 10:23:02;;;;;;;8.50;7.23;;;9.80;99.90;;;;;;5011395;28;20951;-85
2022/01/02 10:25:40;;;;;;;7.70;6.50;;;9.80;99.90;;;;;;5003939;28;20469;-85
2022/01/02 10:28:26;;;;;;;8.40;6.57;;;9.70;99.90;;;;;;5011511;28;20450;-85
2022/01/02 10:30:54;;;;;;;7.40;6.70;;;9.60;99.90;;;;;;4999205;28;20928;-86
2022/01/02 10:33:21;;;;;;;8.07;7.23;;;9.50;99.90;;;;;;4997762;28;20463;-85
2022/01/02 10:35:55;;;;;;;7.13;6.43;;;9.50;99.90;;;;;;4997863;28;20475;-86
2022/01/02 10:38:22;;;;;;;7.60;6.90;;;9.50;99.90;;;;;;5000338;28;20586;-85
2022/01/02 10:40:49;;;;;;;6.33;5.83;;;9.40;99.90;;;;;;5013552;28;20489;-83
2022/01/02 10:43:30;;;;;;;7.47;6.73;;;9.40;99.90;;;;;;5006700;28;20501;-85
2022/01/02 10:45:58;;;;;;;7.20;6.00;;;9.40;99.90;;;;;;5007562;28;20473;-83
2022/01/02 10:48:33;;;;;;;8.07;7.27;;;9.40;99.90;;;;;;5015334;28;20430;-82
2022/01/02 10:51:03;;;;;;;8.37;6.20;;;9.50;99.90;;;;;;5024916;28;20454;-84
2022/01/02 10:53:31;;;;;;;6.80;6.00;;;9.60;99.90;;;;;;5009866;28;20946;-87
2022/01/02 10:55:59;;;;;;;6.40;5.80;;;9.60;99.90;;;;;;5008265;28;20463;-85
2022/01/02 10:58:27;;;;;;;7.50;6.80;;;9.60;99.90;;;;;;5008365;28;20459;-84
2022/01/02 11:00:56;;;;;;;8.23;7.10;;;9.60;99.90;;;;;;5007071;28;20505;-85
2022/01/02 11:03:25;;;;;;;7.73;6.93;;;9.60;99.90;;;;;;5006654;28;20960;-83
2022/01/02 11:05:59;;;;;;;8.67;7.87;;;9.60;99.90;;;;;;5008323;28;20466;-83
2022/01/02 11:08:30;;;;;;;7.97;7.10;;;9.60;99.90;;;;;;5007767;28;20446;-84
2022/01/02 11:10:57;;;;;;;7.57;6.83;;;9.60;99.90;;;;;;5013826;28;20454;-85
2022/01/02 11:13:25;;;;;;;8.27;7.47;;;9.50;99.90;;;;;;5013092;28;20511;-85
2022/01/02 11:15:54;;;;;;;7.53;6.83;;;9.50;99.90;;;;;;4998863;28;20893;-86
2022/01/02 11:18:22;;;;;;;8.33;6.73;;;9.40;99.90;;;;;;4999546;28;20510;-85
2022/01/02 11:20:48;;;;;;;10.87;7.87;;;9.40;99.90;;;;;;5003506;28;20530;-86
2022/01/02 11:23:22;;;;;;;7.63;6.77;;;9.30;99.90;;;;;;5017017;28;20458;-86
2022/01/02 11:25:54;;;;;;;8.33;6.93;;;9.30;99.90;;;;;;5004591;28;21006;-84
2022/01/02 11:28:34;;;;;;;8.67;7.60;;;9.30;99.90;;;;;;5005518;28;20478;-85
2022/01/02 11:31:04;;;;;;;9.27;8.40;;;9.30;99.90;;;;;;5003787;28;20466;-84
2022/01/02 11:33:32;;;;;;;8.50;7.67;;;9.40;99.90;;;;;;5004701;28;20517;-83
2022/01/02 11:36:01;;;;;;;9.83;8.57;;;9.60;99.90;;;;;;5007005;28;20466;-85
2022/01/02 11:38:43;;;;;;;8.60;7.70;;;9.70;99.90;;;;;;5005588;28;20465;-82
2022/01/02 11:41:13;;;;;;;7.20;6.40;;;9.80;99.90;;;;;;5016461;28;20506;-84
2022/01/02 11:43:56;;;;;;;9.60;7.50;;;9.80;99.90;;;;;;5016077;28;20466;-84
2022/01/02 11:46:27;;;;;;;7.80;7.10;;;9.90;99.90;;;;;;5007317;28;20477;-85
2022/01/02 11:49:14;;;;;;;7.60;6.80;;;9.90;99.90;;;;;;5004473;28;20940;-84
2022/01/02 11:52:07;;;;;;;7.50;6.67;;;9.90;99.90;;;;;;5005585;28;20450;-86
2022/01/02 11:54:54;;;;;;;7.43;6.60;;;9.80;99.90;;;;;;5021775;28;20454;-86
2022/01/02 11:57:51;;;;;;;9.80;7.43;;;9.90;99.90;;;;;;5019586;28;20470;-86
2022/01/02 12:00:41;;;;;;;8.87;7.10;;;9.90;99.90;;;;;;5013646;28;20483;-87
2022/01/02 12:03:42;;;;;;;9.30;7.57;;;9.90;99.90;;;;;;5015445;28;20522;-87
2022/01/02 12:06:19;;;;;;;8.53;7.70;;;10.00;99.90;;;;;;5006163;28;20520;-86
2022/01/02 12:08:47;;;;;;;9.77;6.50;;;10.00;99.90;;;;;;5009290;28;20441;-85
2022/01/02 12:11:45;;;;;;;9.77;8.43;;;10.00;99.90;;;;;;5011391;28;20447;-85
2022/01/02 12:14:19;;;;;;;9.03;7.77;;;9.90;99.90;;;;;;5006427;28;20445;-85
2022/01/02 12:16:57;;;;;;;8.43;7.37;;;10.00;99.90;;;;;;5007738;28;20493;-86
2022/01/02 12:19:24;;;;;;;7.83;7.13;;;10.10;99.90;;;;;;4999675;28;20863;-89
2022/01/02 12:22:12;;;;;;;7.80;6.63;;;10.30;99.90;;;;;;5014650;28;20856;-86
2022/01/02 12:24:40;;;;;;;9.00;6.80;;;10.50;99.90;;;;;;5008382;28;20449;-85
2022/01/02 12:27:11;;;;;;;8.40;7.57;;;10.90;99.90;;;;;;5012051;28;20537;-85
2022/01/02 12:29:39;;;;;;;7.90;7.00;;;11.60;99.90;;;;;;5021431;28;20446;-86
2022/01/02 12:32:07;;;;;;;5.27;4.80;;;12.80;99.90;;;;;;4992117;28;20467;-86
2022/01/02 12:34:34;;;;;;;5.60;5.03;;;13.70;99.50;;;;;;5018653;28;20450;-86
2022/01/02 12:37:02;;;;;;;3.83;3.53;;;14.30;97.30;;;;;;5017749;28;20525;-88
2022/01/02 12:39:31;;;;;;;4.83;4.40;;;14.60;95.80;;;;;;5012020;28;20500;-88
2022/01/02 12:42:03;;;;;;;5.63;4.77;;;15.00;94.60;;;;;;4999760;28;20464;-87
2022/01/02 12:44:31;;;;;;;7.93;4.87;;;15.70;94.00;;;;;;5000073;28;20451;-87
2022/01/02 12:46:59;;;;;;;4.80;4.23;;;16.00;93.00;;;;;;5000039;28;20474;-86
2022/01/02 12:49:28;;;;;;;4.20;3.80;;;16.00;92.00;;;;;;5028021;28;20446;-86
2022/01/02 12:51:56;;;;;;;4.10;3.63;;;16.10;91.90;;;;;;5028699;28;20790;-86
2022/01/02 12:54:24;;;;;;;4.67;4.27;;;16.30;91.70;;;;;;5006791;28;20524;-88
2022/01/02 12:56:54;;;;;;;5.57;4.73;;;16.90;90.90;;;;;;5008326;28;20852;-86
2022/01/02 12:59:24;;;;;;;5.83;4.70;;;17.70;90.20;;;;;;5017351;28;20457;-86
2022/01/02 13:02:02;;;;;;;4.83;4.10;;;18.30;87.10;;;;;;5007883;28;20497;-86
2022/01/02 13:04:31;;;;;;;5.03;4.53;;;18.30;84.70;;;;;;5011609;28;20454;-88